createdAt,value
2023-05-08T00:00:03.345Z,4.59
2023-05-08T00:02:29.685Z,4.51
2023-05-08T00:04:56.127Z,4.64
2023-05-08T00:07:22.500Z,4.92
2023-05-08T00:09:48.817Z,4.95
2023-05-08T00:12:15.135Z,4.47
2023-05-08T00:14:41.449Z,4.40
2023-05-08T00:17:07.982Z,4.10
2023-05-08T00:19:34.381Z,4.03
2023-05-08T00:22:00.717Z,4.27
2023-05-08T00:24:27.040Z,4.28
2023-05-08T00:26:53.353Z,4.43
2023-05-08T00:29:19.668Z,4.06
2023-05-08T00:31:46.052Z,4.27
2023-05-08T00:34:12.388Z,4.21
2023-05-08T00:36:38.714Z,3.90
2023-05-08T00:39:05.082Z,4.25
2023-05-08T00:41:31.416Z,4.29
2023-05-08T00:43:57.741Z,4.25
2023-05-08T00:46:24.079Z,4.31
2023-05-08T00:48:50.417Z,4.42
2023-05-08T00:51:16.726Z,4.71
2023-05-08T00:53:43.051Z,4.25
2023-05-08T00:56:09.363Z,4.19
2023-05-08T00:58:35.692Z,4.28
2023-05-08T01:01:02.042Z,4.18
2023-05-08T01:03:28.547Z,4.09
2023-05-08T01:05:54.984Z,4.07
2023-05-08T01:08:21.284Z,4.13
2023-05-08T01:10:47.590Z,4.39
2023-05-08T01:13:13.953Z,4.44
2023-05-08T01:15:40.339Z,4.36
2023-05-08T01:18:06.659Z,4.73
2023-05-08T01:20:32.960Z,4.57
2023-05-08T01:22:59.268Z,4.22
2023-05-08T01:25:25.596Z,4.33
2023-05-08T01:27:51.909Z,4.43
2023-05-08T01:30:18.239Z,4.59
2023-05-08T01:32:44.582Z,4.66
2023-05-08T01:35:10.981Z,4.78
2023-05-08T01:37:37.357Z,4.72
2023-05-08T01:40:03.676Z,4.92
2023-05-08T01:42:29.992Z,5.08
2023-05-08T01:44:56.313Z,5.25
2023-05-08T01:47:22.622Z,5.04
2023-05-08T01:49:48.933Z,5.41
2023-05-08T01:52:15.242Z,5.20
2023-05-08T01:54:41.555Z,5.42
2023-05-08T01:57:07.869Z,5.27
2023-05-08T01:59:34.190Z,5.49
2023-05-08T02:02:00.521Z,5.55
2023-05-08T02:04:27.062Z,5.23
2023-05-08T02:06:53.455Z,5.49
2023-05-08T02:09:19.761Z,5.86
2023-05-08T02:11:46.167Z,6.01
2023-05-08T02:14:12.483Z,6.44
2023-05-08T02:16:38.823Z,6.62
2023-05-08T02:19:05.152Z,6.64
2023-05-08T02:21:31.494Z,6.39
2023-05-08T02:23:57.804Z,5.58
2023-05-08T02:26:24.132Z,5.86
2023-05-08T02:28:50.475Z,6.09
2023-05-08T02:31:16.785Z,6.10
2023-05-08T02:33:43.105Z,6.49
2023-05-08T02:36:09.410Z,6.72
2023-05-08T02:38:35.752Z,6.54
2023-05-08T02:41:02.080Z,6.91
2023-05-08T02:43:28.394Z,6.89
2023-05-08T02:45:54.777Z,7.09
2023-05-08T02:48:21.135Z,6.78
2023-05-08T02:50:47.438Z,7.16
2023-05-08T02:53:13.757Z,7.34
2023-05-08T02:55:40.094Z,7.27
2023-05-08T02:58:06.402Z,7.48
2023-05-08T03:00:32.733Z,7.36
2023-05-08T03:02:59.170Z,7.58
2023-05-08T03:05:25.525Z,7.31
2023-05-08T03:07:51.844Z,7.45
2023-05-08T03:10:18.195Z,7.50
2023-05-08T03:12:44.579Z,7.34
2023-05-08T03:15:10.928Z,7.53
2023-05-08T03:17:37.295Z,7.40
2023-05-08T03:20:03.604Z,6.87
2023-05-08T03:22:29.926Z,7.31
2023-05-08T03:24:56.234Z,7.24
2023-05-08T03:27:22.543Z,7.20
2023-05-08T03:29:48.903Z,7.05
2023-05-08T03:32:15.230Z,6.77
2023-05-08T03:34:41.542Z,6.79
2023-05-08T03:37:07.861Z,6.74
2023-05-08T03:39:34.180Z,6.68
2023-05-08T03:42:00.511Z,6.14
2023-05-08T03:44:26.829Z,6.21
2023-05-08T03:46:53.214Z,6.14
2023-05-08T03:49:19.542Z,6.40
2023-05-08T03:51:45.853Z,6.07
2023-05-08T03:54:12.174Z,6.19
2023-05-08T03:56:38.486Z,6.40
2023-05-08T03:59:04.798Z,6.19
2023-05-08T04:01:31.159Z,6.12
2023-05-08T04:03:57.561Z,5.92
2023-05-08T04:06:23.920Z,5.83
2023-05-08T04:08:50.228Z,6.19
2023-05-08T04:11:16.531Z,5.92
2023-05-08T04:13:42.853Z,5.71
2023-05-08T04:16:09.160Z,5.59
2023-05-08T04:18:35.484Z,5.69
2023-05-08T04:21:01.817Z,5.42
2023-05-08T04:23:28.134Z,5.48
2023-05-08T04:25:54.438Z,5.23
2023-05-08T04:28:20.756Z,5.78
2023-05-08T04:30:47.066Z,5.43
2023-05-08T04:33:13.447Z,5.77
2023-05-08T04:35:39.793Z,6.06
2023-05-08T04:38:06.122Z,5.95
2023-05-08T04:40:32.452Z,6.76
2023-05-08T04:42:58.763Z,7.51
2023-05-08T04:45:25.087Z,6.99
2023-05-08T04:47:51.420Z,7.30
2023-05-08T04:50:17.747Z,7.38
2023-05-08T04:52:44.057Z,8.50
2023-05-08T04:55:10.487Z,8.71
2023-05-08T04:57:36.936Z,8.06
2023-05-08T05:00:03.235Z,7.31
2023-05-08T05:02:29.596Z,7.30
2023-05-08T05:04:55.918Z,7.39
2023-05-08T05:07:22.246Z,7.31
2023-05-08T05:09:48.584Z,7.33
2023-05-08T05:12:14.900Z,6.97
2023-05-08T05:14:41.265Z,7.37
2023-05-08T05:17:07.605Z,7.30
2023-05-08T05:19:33.928Z,8.12
2023-05-08T05:22:00.241Z,8.08
2023-05-08T05:24:26.576Z,7.42
2023-05-08T05:26:52.889Z,7.22
2023-05-08T05:29:19.196Z,7.23
2023-05-08T05:31:45.572Z,7.04
2023-05-08T05:34:11.910Z,7.79
2023-05-08T05:36:38.212Z,7.73
2023-05-08T05:39:04.538Z,7.59
2023-05-08T05:41:30.840Z,7.88
2023-05-08T05:43:57.169Z,7.58
2023-05-08T05:46:23.505Z,8.12
2023-05-08T05:48:49.841Z,8.55
2023-05-08T05:51:16.141Z,8.79
2023-05-08T05:53:42.469Z,8.61
2023-05-08T05:56:08.806Z,8.54
2023-05-08T05:58:35.136Z,8.62
2023-05-08T06:01:01.476Z,8.57
2023-05-08T06:03:27.987Z,8.59
2023-05-08T06:05:55.774Z,8.25
2023-05-08T06:08:22.802Z,8.51
2023-05-08T06:10:49.124Z,7.91
2023-05-08T06:13:15.487Z,7.67
2023-05-08T06:15:41.814Z,7.55
2023-05-08T06:18:08.198Z,7.24
2023-05-08T06:20:34.581Z,7.52
2023-05-08T06:23:00.912Z,6.65
2023-05-08T06:25:27.241Z,6.91
2023-05-08T06:27:53.552Z,7.12
2023-05-08T06:30:19.857Z,6.76
2023-05-08T06:32:46.256Z,6.64
2023-05-08T06:35:12.703Z,5.48
2023-05-08T06:37:39.214Z,4.89
2023-05-08T06:40:12.285Z,5.43
2023-05-08T06:42:39.252Z,5.62
2023-05-08T06:45:05.581Z,4.87
2023-05-08T06:47:31.913Z,4.81
2023-05-08T06:49:58.253Z,4.86
2023-05-08T06:52:24.610Z,5.03
2023-05-08T06:54:51.025Z,4.20
2023-05-08T06:57:17.349Z,3.20
2023-05-08T06:59:43.661Z,3.37
2023-05-08T07:02:10.148Z,3.87
2023-05-08T07:04:36.522Z,3.56
2023-05-08T07:07:02.837Z,3.55
2023-05-08T07:09:29.146Z,3.79
2023-05-08T07:11:55.462Z,3.85
2023-05-08T07:14:21.780Z,3.94
2023-05-08T07:16:48.109Z,3.91
2023-05-08T07:19:14.429Z,4.31
2023-05-08T07:21:40.796Z,4.48
2023-05-08T07:24:07.149Z,4.63
2023-05-08T07:26:33.456Z,4.36
2023-05-08T07:28:59.758Z,3.93
2023-05-08T07:31:26.130Z,3.00
2023-05-08T07:33:52.460Z,2.47
2023-05-08T07:36:18.768Z,3.05
2023-05-08T07:38:45.072Z,3.28
2023-05-08T07:41:11.439Z,2.89
2023-05-08T07:43:37.832Z,3.34
2023-05-08T07:46:04.156Z,3.85
2023-05-08T07:48:30.499Z,3.60
2023-05-08T07:50:56.845Z,3.73
2023-05-08T07:53:23.191Z,3.49
2023-05-08T07:55:49.529Z,3.33
2023-05-08T07:58:15.893Z,3.08
2023-05-08T08:00:42.223Z,3.27
2023-05-08T08:03:08.619Z,3.32
2023-05-08T08:05:35.023Z,3.59
2023-05-08T08:08:01.429Z,3.63
2023-05-08T08:10:27.746Z,3.50
2023-05-08T08:12:54.084Z,3.23
2023-05-08T08:15:20.401Z,3.03
2023-05-08T08:17:46.743Z,2.92
2023-05-08T08:20:13.154Z,2.86
2023-05-08T08:22:39.544Z,2.42
2023-05-08T08:25:05.916Z,2.48
2023-05-08T08:27:32.259Z,2.41
2023-05-08T08:30:12.924Z,1.76
2023-05-08T08:32:43.714Z,1.70
2023-05-08T08:35:10.071Z,1.68
2023-05-08T08:37:36.419Z,1.49
2023-05-08T08:40:02.894Z,1.31
2023-05-08T08:42:29.230Z,1.33
2023-05-08T08:44:55.568Z,1.44
2023-05-08T08:47:21.930Z,1.36
2023-05-08T08:49:48.265Z,1.34
2023-05-08T08:52:14.578Z,1.75
2023-05-08T08:54:40.924Z,1.72
2023-05-08T08:57:07.295Z,1.46
2023-05-08T08:59:33.631Z,1.67
2023-05-08T09:01:59.986Z,3.09
2023-05-08T09:04:26.384Z,2.63
2023-05-08T09:06:52.813Z,2.11
2023-05-08T09:09:19.175Z,2.10
2023-05-08T09:11:45.509Z,2.08
2023-05-08T09:14:11.826Z,2.59
2023-05-08T09:16:38.168Z,2.24
2023-05-08T09:19:04.787Z,2.19
2023-05-08T09:21:31.189Z,2.08
2023-05-08T09:23:57.513Z,2.19
2023-05-08T09:26:23.829Z,2.40
2023-05-08T09:28:50.152Z,2.63
2023-05-08T09:31:16.485Z,2.62
2023-05-08T09:33:42.844Z,2.34
2023-05-08T09:36:09.151Z,2.54
2023-05-08T09:38:35.514Z,2.70
2023-05-08T09:41:01.887Z,2.16
2023-05-08T09:43:28.405Z,2.01
2023-05-08T09:45:54.763Z,2.05
2023-05-08T09:48:21.117Z,2.28
2023-05-08T09:50:47.436Z,2.13
2023-05-08T09:53:13.738Z,2.65
2023-05-08T09:55:40.053Z,2.72
2023-05-08T09:58:06.372Z,2.33
2023-05-08T10:00:32.687Z,2.07
2023-05-08T10:02:59.105Z,2.53
2023-05-08T10:05:25.636Z,2.83
2023-05-08T10:07:51.990Z,2.64
2023-05-08T10:10:18.345Z,2.73
2023-05-08T10:12:44.709Z,2.80
2023-05-08T10:15:11.060Z,3.09
2023-05-08T10:17:37.450Z,2.88
2023-05-08T10:20:03.806Z,2.41
2023-05-08T10:22:30.135Z,2.23
2023-05-08T10:24:56.449Z,2.08
2023-05-08T10:27:22.791Z,2.28
2023-05-08T10:29:49.122Z,2.12
2023-05-08T10:32:15.449Z,2.06
2023-05-08T10:34:41.753Z,2.12
2023-05-08T10:37:08.072Z,2.27
2023-05-08T10:39:34.403Z,2.21
2023-05-08T10:42:00.729Z,2.65
2023-05-08T10:44:27.044Z,1.94
2023-05-08T10:46:53.367Z,1.95
2023-05-08T10:49:19.686Z,1.90
2023-05-08T10:51:46.013Z,2.01
2023-05-08T10:54:12.336Z,1.93
2023-05-08T10:56:38.672Z,1.94
2023-05-08T10:59:04.993Z,1.87
2023-05-08T11:01:31.466Z,1.87
2023-05-08T11:03:57.871Z,2.00
2023-05-08T11:06:24.231Z,2.30
2023-05-08T11:08:50.564Z,1.87
2023-05-08T11:11:16.887Z,1.84
2023-05-08T11:13:43.219Z,1.77
2023-05-08T11:16:09.571Z,1.81
2023-05-08T11:18:48.555Z,1.73
2023-05-08T11:21:15.656Z,1.74
2023-05-08T11:23:42.022Z,1.53
2023-05-08T11:26:08.336Z,1.72
2023-05-08T11:28:34.724Z,1.49
2023-05-08T11:31:01.066Z,1.33
2023-05-08T11:33:27.377Z,1.40
2023-05-08T11:35:53.698Z,1.13
2023-05-08T11:38:20.049Z,0.93
2023-05-08T11:40:46.358Z,0.95
2023-05-08T11:43:12.662Z,0.98
2023-05-08T11:45:38.961Z,1.01
2023-05-08T11:48:05.311Z,1.02
2023-05-08T11:50:31.697Z,0.99
2023-05-08T11:52:58.035Z,0.93
2023-05-08T11:55:24.366Z,1.02
2023-05-08T11:57:50.664Z,1.02
2023-05-08T12:00:17.323Z,0.85
2023-05-08T12:02:44.067Z,0.78
2023-05-08T12:05:10.759Z,0.81
2023-05-08T12:07:37.376Z,0.75
2023-05-08T12:10:03.707Z,0.97
2023-05-08T12:12:30.041Z,0.95
2023-05-08T12:14:56.355Z,0.81
2023-05-08T12:17:22.976Z,0.63
2023-05-08T12:19:49.446Z,0.60
2023-05-08T12:22:15.770Z,0.76
2023-05-08T12:24:42.076Z,0.72
2023-05-08T12:27:08.382Z,0.80
2023-05-08T12:29:34.688Z,0.77
2023-05-08T12:32:01.018Z,0.72
2023-05-08T12:34:27.332Z,0.79
2023-05-08T12:36:53.649Z,0.78
2023-05-08T12:39:20.001Z,0.85
2023-05-08T12:41:46.343Z,0.65
2023-05-08T12:44:12.671Z,0.72
2023-05-08T12:46:39.047Z,0.77
2023-05-08T12:49:05.351Z,0.82
2023-05-08T12:51:31.775Z,0.60
2023-05-08T12:53:58.107Z,0.62
2023-05-08T12:56:24.414Z,0.71
2023-05-08T12:58:50.718Z,0.59
2023-05-08T13:01:17.024Z,0.65
2023-05-08T13:03:43.400Z,0.91
2023-05-08T13:06:09.765Z,0.73
2023-05-08T13:08:36.092Z,0.72
2023-05-08T13:11:02.545Z,0.96
2023-05-08T13:13:29.004Z,0.92
2023-05-08T13:15:55.436Z,0.79
2023-05-08T13:18:21.838Z,0.78
2023-05-08T13:20:48.169Z,1.04
2023-05-08T13:23:14.524Z,0.83
2023-05-08T13:25:40.831Z,0.96
2023-05-08T13:28:07.147Z,0.91
2023-05-08T13:30:33.451Z,0.85
2023-05-08T13:32:59.816Z,1.01
2023-05-08T13:35:26.149Z,0.70
2023-05-08T13:37:52.479Z,0.84
2023-05-08T13:40:18.826Z,0.75
2023-05-08T13:42:45.166Z,0.79
2023-05-08T13:45:11.744Z,1.01
2023-05-08T13:47:38.245Z,1.38
2023-05-08T13:50:04.593Z,0.77
2023-05-08T13:52:30.921Z,0.83
2023-05-08T13:54:57.230Z,1.02
2023-05-08T13:57:23.555Z,0.91
2023-05-08T13:59:49.880Z,0.90
2023-05-08T14:02:16.287Z,0.91
2023-05-08T14:04:42.670Z,1.37
2023-05-08T14:07:09.012Z,1.15
2023-05-08T14:09:35.319Z,0.93
2023-05-08T14:12:01.630Z,0.82
2023-05-08T14:14:27.945Z,0.91
2023-05-08T14:16:54.258Z,0.89
2023-05-08T14:19:20.593Z,0.88
2023-05-08T14:21:46.901Z,0.90
2023-05-08T14:24:13.218Z,0.79
2023-05-08T14:26:39.670Z,0.77
2023-05-08T14:29:06.026Z,0.84
2023-05-08T14:31:32.378Z,0.92
2023-05-08T14:33:58.776Z,0.81
2023-05-08T14:36:25.077Z,0.90
2023-05-08T14:38:51.397Z,0.88
2023-05-08T14:41:17.733Z,0.90
2023-05-08T14:43:44.071Z,0.92
2023-05-08T14:46:10.431Z,0.99
2023-05-08T14:48:36.777Z,1.12
2023-05-08T14:51:03.089Z,1.03
2023-05-08T14:53:29.476Z,1.03
2023-05-08T14:55:56.473Z,1.02
2023-05-08T14:58:22.940Z,0.93
2023-05-08T15:00:49.266Z,0.84
2023-05-08T15:03:15.607Z,0.95
2023-05-08T15:05:41.941Z,0.90
2023-05-08T15:08:08.237Z,0.90
2023-05-08T15:10:34.552Z,1.23
2023-05-08T15:13:00.900Z,1.32
2023-05-08T15:15:27.297Z,1.54
2023-05-08T15:17:53.666Z,1.48
2023-05-08T15:20:20.013Z,1.23
2023-05-08T15:22:46.329Z,1.17
2023-05-08T15:25:12.939Z,1.24
2023-05-08T15:27:39.447Z,1.27
2023-05-08T15:30:05.799Z,1.28
2023-05-08T15:32:32.162Z,1.53
2023-05-08T15:34:58.526Z,1.29
2023-05-08T15:37:24.838Z,1.34
2023-05-08T15:39:51.150Z,1.28
2023-05-08T15:42:17.472Z,1.22
2023-05-08T15:44:54.471Z,0.94
2023-05-08T15:47:21.388Z,0.94
2023-05-08T15:49:47.719Z,0.91
2023-05-08T15:52:14.036Z,0.93
2023-05-08T15:54:40.356Z,0.97
2023-05-08T15:57:06.665Z,0.97
2023-05-08T15:59:32.965Z,0.95
2023-05-08T16:01:59.294Z,0.92
2023-05-08T16:04:25.602Z,0.91
2023-05-08T16:06:51.923Z,1.00
2023-05-08T16:09:18.250Z,0.94
2023-05-08T16:11:44.552Z,0.84
2023-05-08T16:14:10.857Z,0.96
2023-05-08T16:16:37.162Z,0.95
2023-05-08T16:19:03.484Z,0.97
2023-05-08T16:21:29.836Z,0.98
2023-05-08T16:23:56.155Z,1.07
2023-05-08T16:26:23.814Z,1.05
2023-05-08T16:28:50.143Z,1.10
2023-05-08T16:31:16.493Z,1.08
2023-05-08T16:33:42.823Z,0.96
2023-05-08T16:36:09.150Z,1.13
2023-05-08T16:38:35.502Z,1.04
2023-05-08T16:41:01.820Z,1.09
2023-05-08T16:43:28.134Z,0.93
2023-05-08T16:45:54.520Z,1.02
2023-05-08T16:48:20.929Z,1.12
2023-05-08T16:50:47.239Z,1.00
2023-05-08T16:53:13.568Z,1.02
2023-05-08T16:55:39.880Z,1.07
2023-05-08T16:58:06.224Z,1.05
2023-05-08T17:00:32.541Z,1.59
2023-05-08T17:02:59.006Z,1.11
2023-05-08T17:05:25.439Z,1.15
2023-05-08T17:07:51.779Z,1.03
2023-05-08T17:10:18.124Z,1.06
2023-05-08T17:12:44.501Z,1.13
2023-05-08T17:15:11.209Z,1.23
2023-05-08T17:17:37.735Z,1.25
2023-05-08T17:20:04.087Z,1.23
2023-05-08T17:22:30.392Z,1.24
2023-05-08T17:24:56.708Z,1.27
2023-05-08T17:27:23.032Z,1.31
2023-05-08T17:29:49.342Z,1.26
2023-05-08T17:32:15.712Z,1.06
2023-05-08T17:34:42.120Z,1.16
2023-05-08T17:37:08.447Z,1.20
2023-05-08T17:39:34.762Z,1.05
2023-05-08T17:42:01.060Z,1.37
2023-05-08T17:44:27.387Z,1.25
2023-05-08T17:46:53.706Z,1.43
2023-05-08T17:49:20.049Z,1.50
2023-05-08T17:51:46.357Z,1.17
2023-05-08T17:54:12.977Z,1.05
2023-05-08T17:56:39.346Z,1.11
2023-05-08T17:59:05.658Z,1.03
2023-05-08T18:01:32.216Z,1.05
2023-05-08T18:03:58.635Z,1.22
2023-05-08T18:06:24.942Z,1.14
2023-05-08T18:08:51.256Z,1.24
2023-05-08T18:11:17.568Z,1.28
2023-05-08T18:13:43.899Z,1.24
2023-05-08T18:16:10.243Z,1.26
2023-05-08T18:18:36.582Z,1.13
2023-05-08T18:21:02.910Z,1.02
2023-05-08T18:23:29.236Z,1.22
2023-05-08T18:25:55.546Z,1.07
2023-05-08T18:28:21.865Z,1.10
2023-05-08T18:30:49.292Z,1.06
2023-05-08T18:33:18.403Z,1.03
2023-05-08T18:35:44.728Z,1.03
2023-05-08T18:38:11.040Z,1.03
2023-05-08T18:40:37.360Z,0.97
2023-05-08T18:43:03.680Z,1.02
2023-05-08T18:45:29.984Z,0.99
2023-05-08T18:47:56.298Z,1.03
2023-05-08T18:50:22.691Z,1.05
2023-05-08T18:52:49.009Z,1.00
2023-05-08T18:55:15.342Z,0.98
2023-05-08T18:57:41.636Z,1.07
2023-05-08T19:00:07.952Z,1.11
2023-05-08T19:02:34.333Z,1.12
2023-05-08T19:05:00.678Z,1.18
2023-05-08T19:07:26.995Z,1.08
2023-05-08T19:09:53.314Z,1.11
2023-05-08T19:12:19.641Z,1.07
2023-05-08T19:14:45.961Z,0.89
2023-05-08T19:17:12.272Z,0.94
2023-05-08T19:19:38.586Z,1.04
2023-05-08T19:22:04.932Z,1.05
2023-05-08T19:24:31.249Z,1.02
2023-05-08T19:26:57.558Z,0.86
2023-05-08T19:29:23.861Z,0.97
2023-05-08T19:31:50.208Z,1.30
2023-05-08T19:34:16.572Z,1.54
2023-05-08T19:36:42.892Z,1.54
2023-05-08T19:39:09.202Z,1.69
2023-05-08T19:41:35.519Z,1.60
2023-05-08T19:44:01.844Z,2.02
2023-05-08T19:46:28.192Z,1.66
2023-05-08T19:48:54.624Z,2.25
2023-05-08T19:51:20.983Z,2.21
2023-05-08T19:53:47.299Z,2.74
2023-05-08T19:56:13.628Z,2.67
2023-05-08T19:58:39.955Z,3.37
2023-05-08T20:01:06.326Z,3.09
2023-05-08T20:03:32.892Z,3.00
2023-05-08T20:05:59.313Z,4.26
2023-05-08T20:08:25.625Z,7.82
2023-05-08T20:10:51.947Z,5.16
2023-05-08T20:13:18.337Z,4.42
2023-05-08T20:15:44.734Z,2.41
2023-05-08T20:18:11.167Z,2.22
2023-05-08T20:20:37.481Z,1.36
2023-05-08T20:23:03.823Z,1.33
2023-05-08T20:25:30.153Z,1.31
2023-05-08T20:27:56.481Z,1.10
2023-05-08T20:30:23.858Z,1.56
2023-05-08T20:32:50.380Z,1.41
2023-05-08T20:35:16.718Z,1.13
2023-05-08T20:37:43.053Z,1.06
2023-05-08T20:40:09.371Z,1.07
2023-05-08T20:42:35.919Z,1.11
2023-05-08T20:45:02.272Z,1.47
2023-05-08T20:47:28.638Z,2.38
2023-05-08T20:49:55.006Z,2.59
2023-05-08T20:52:21.335Z,2.95
2023-05-08T20:54:47.650Z,2.58
2023-05-08T20:57:13.956Z,2.31
2023-05-08T20:59:40.287Z,2.19
2023-05-08T21:02:06.627Z,2.47
2023-05-08T21:04:33.015Z,3.98
2023-05-08T21:06:59.362Z,6.76
2023-05-08T21:09:25.687Z,8.02
2023-05-08T21:11:51.990Z,8.59
2023-05-08T21:14:18.317Z,10.17
2023-05-08T21:16:44.690Z,11.38
2023-05-08T21:19:11.064Z,14.29
2023-05-08T21:21:37.382Z,21.59
2023-05-08T21:24:03.709Z,22.73
2023-05-08T21:26:30.015Z,15.54
2023-05-08T21:28:56.315Z,10.60
2023-05-08T21:31:22.765Z,10.53
2023-05-08T21:33:49.106Z,13.71
2023-05-08T21:36:15.412Z,11.15
2023-05-08T21:38:41.722Z,12.14
2023-05-08T21:41:08.046Z,11.83
2023-05-08T21:43:34.365Z,7.28
2023-05-08T21:46:00.713Z,4.20
2023-05-08T21:48:27.050Z,3.21
2023-05-08T21:50:53.356Z,3.26
2023-05-08T21:53:19.661Z,5.69
2023-05-08T21:55:45.965Z,5.46
2023-05-08T21:58:12.276Z,5.70
2023-05-08T22:00:38.591Z,6.76
2023-05-08T22:03:05.096Z,5.27
2023-05-08T22:05:31.466Z,5.14
2023-05-08T22:07:57.791Z,3.91
2023-05-08T22:10:24.133Z,3.15
2023-05-08T22:12:50.500Z,2.13
2023-05-08T22:15:28.945Z,2.15
2023-05-08T22:17:56.519Z,1.98
2023-05-08T22:20:22.904Z,1.60
2023-05-08T22:22:49.370Z,1.72
2023-05-08T22:25:15.879Z,1.53
2023-05-08T22:27:42.411Z,1.59
2023-05-08T22:30:08.784Z,1.77
2023-05-08T22:32:35.201Z,3.68
2023-05-08T22:35:01.543Z,5.05
2023-05-08T22:37:27.873Z,5.89
2023-05-08T22:39:54.233Z,5.45
2023-05-08T22:42:20.575Z,6.21
2023-05-08T22:44:46.878Z,6.57
2023-05-08T22:47:13.254Z,4.11
2023-05-08T22:49:39.655Z,2.39
2023-05-08T22:52:05.983Z,2.00
2023-05-08T22:54:32.287Z,1.85
2023-05-08T22:56:58.587Z,1.83
2023-05-08T22:59:24.906Z,1.93
2023-05-08T23:01:51.237Z,1.84
2023-05-08T23:04:17.608Z,1.66
2023-05-08T23:06:43.961Z,1.99
2023-05-08T23:09:10.289Z,1.91
2023-05-08T23:11:36.609Z,2.01
2023-05-08T23:14:02.940Z,2.03
2023-05-08T23:16:29.285Z,1.71
2023-05-08T23:18:55.650Z,1.48
2023-05-08T23:21:22.015Z,1.41
2023-05-08T23:23:48.311Z,1.32
2023-05-08T23:26:14.640Z,1.29
2023-05-08T23:28:40.968Z,1.46
2023-05-08T23:31:07.316Z,1.46
2023-05-08T23:33:33.624Z,1.56
2023-05-08T23:35:59.947Z,1.68
2023-05-08T23:38:26.323Z,1.77
2023-05-08T23:40:52.650Z,1.84
2023-05-08T23:43:19.065Z,1.87
2023-05-08T23:45:45.408Z,1.90
2023-05-08T23:48:11.719Z,1.94
2023-05-08T23:50:38.052Z,1.88
2023-05-08T23:53:04.354Z,1.81
2023-05-08T23:55:30.661Z,1.83
2023-05-08T23:57:56.966Z,1.86
